Time;durP1;ratioP1;P1;durP2;ratioP2;P2;SDS_P1;SDS_P2;PMS_P1;PMS_P2;Temp;Humidity;BMP_temperature;BMP_pressure;BME280_temperature;BME280_humidity;BME280_pressure;Samples;Min_cycle;Max_cycle;Signal;HPM_P1;HPM_P2
2022/10/12 00:00:52;;;;;;;16.58;8.48;;;6.30;99.90;;;;;;5136901;27;20283;-64
2022/10/12 00:03:18;;;;;;;12.48;6.13;;;6.30;99.90;;;;;;5137098;27;20125;-64
2022/10/12 00:05:45;;;;;;;9.73;6.70;;;6.30;99.90;;;;;;5154737;27;20074;-64
2022/10/12 00:08:11;;;;;;;19.80;8.45;;;6.30;99.90;;;;;;5155345;27;20042;-64
2022/10/12 00:10:41;;;;;;;15.25;7.65;;;6.30;99.90;;;;;;5136962;27;20075;-64
2022/10/12 00:13:09;;;;;;;14.32;7.38;;;6.30;99.90;;;;;;5136469;27;20121;-64
2022/10/12 00:15:39;;;;;;;12.00;5.45;;;6.30;99.90;;;;;;5136573;27;20041;-64
2022/10/12 00:18:05;;;;;;;;;;;6.30;99.90;;;;;;5134505;27;20090;-65
2022/10/12 00:20:31;;;;;;;16.58;6.53;;;6.30;99.90;;;;;;5136657;27;20286;-65
2022/10/12 00:22:57;;;;;;;14.77;6.25;;;6.30;99.90;;;;;;5154925;27;20041;-65
2022/10/12 00:25:23;;;;;;;14.95;6.35;;;6.30;99.90;;;;;;5136314;27;20046;-64
2022/10/12 00:27:49;;;;;;;11.60;7.15;;;6.20;99.90;;;;;;5136564;27;20038;-64
2022/10/12 00:30:15;;;;;;;15.55;7.20;;;6.20;99.90;;;;;;5139667;27;20495;-64
2022/10/12 00:32:41;;;;;;;11.32;6.03;;;6.30;99.90;;;;;;5134083;27;20059;-64
2022/10/12 00:35:07;;;;;;;12.77;6.72;;;6.20;99.90;;;;;;5134179;27;20534;-64
2022/10/12 00:37:33;;;;;;;15.15;6.88;;;6.20;99.90;;;;;;5115471;27;20039;-64
2022/10/12 00:39:59;;;;;;;12.02;7.03;;;6.30;99.90;;;;;;5115884;27;20050;-64
2022/10/12 00:42:25;;;;;;;9.85;6.00;;;6.30;99.90;;;;;;5115713;27;20046;-64
2022/10/12 00:44:51;;;;;;;17.60;7.88;;;6.30;99.90;;;;;;5115607;27;20043;-64
2022/10/12 00:47:29;;;;;;;13.05;7.53;;;6.30;99.90;;;;;;5096092;27;20043;-64
2022/10/12 00:50:03;;;;;;;15.77;6.93;;;6.30;99.90;;;;;;5133714;27;20046;-64
2022/10/12 00:52:51;;;;;;;9.15;5.63;;;6.30;99.90;;;;;;5133536;27;20075;-64
2022/10/12 00:55:20;;;;;;;12.13;6.82;;;6.40;99.90;;;;;;5115269;27;20035;-64
2022/10/12 00:57:48;;;;;;;12.75;8.98;;;6.40;99.90;;;;;;5115432;27;20047;-64
2022/10/12 01:00:15;;;;;;;12.93;6.88;;;6.40;99.90;;;;;;5133532;27;20049;-64
2022/10/12 01:02:42;;;;;;;11.45;8.07;;;6.50;99.90;;;;;;5114984;27;20034;-64
2022/10/12 01:05:10;;;;;;;12.65;7.38;;;6.50;99.90;;;;;;5115059;27;20043;-64
2022/10/12 01:07:36;;;;;;;8.60;6.22;;;6.50;99.90;;;;;;5133375;27;20086;-64
2022/10/12 01:10:04;;;;;;;10.75;6.70;;;6.60;99.90;;;;;;5133307;27;20043;-64
2022/10/12 01:12:30;;;;;;;13.65;6.68;;;6.60;99.90;;;;;;5114981;27;20035;-64
2022/10/12 01:14:56;;;;;;;15.00;7.43;;;6.60;99.90;;;;;;5097601;27;20035;-64
2022/10/12 01:17:47;;;;;;;18.17;7.05;;;6.60;99.90;;;;;;5111704;27;20087;-64
2022/10/12 01:20:38;;;;;;;11.82;6.50;;;6.60;99.90;;;;;;5115047;27;20130;-64
2022/10/12 01:23:16;;;;;;;13.02;7.70;;;6.60;99.90;;;;;;5133276;27;20394;-64
2022/10/12 01:26:04;;;;;;;12.13;6.05;;;6.60;99.90;;;;;;5114671;27;20054;-64
2022/10/12 01:28:29;;;;;;;14.38;6.68;;;6.60;99.90;;;;;;5132843;27;20042;-64
2022/10/12 01:31:03;;;;;;;12.60;6.00;;;6.60;99.90;;;;;;5114311;27;20047;-64
2022/10/12 01:33:44;;;;;;;17.52;7.30;;;6.60;99.90;;;;;;5114625;27;20042;-64
2022/10/12 01:36:21;;;;;;;;;;;6.70;99.90;;;;;;5133404;27;20027;-64
2022/10/12 01:39:06;;;;;;;12.05;5.18;;;6.60;99.90;;;;;;5114736;27;19915;-64
2022/10/12 01:41:54;;;;;;;11.63;4.95;;;6.60;99.90;;;;;;5114439;28;20076;-64
2022/10/12 01:44:25;;;;;;;14.05;4.60;;;6.60;99.90;;;;;;5114380;27;20103;-64
2022/10/12 01:46:53;;;;;;;7.15;5.03;;;6.60;99.90;;;;;;5095011;28;20046;-64
2022/10/12 01:49:27;;;;;;;10.95;5.28;;;6.70;99.90;;;;;;5133054;27;20261;-64
2022/10/12 01:52:11;;;;;;;14.82;6.32;;;6.70;99.90;;;;;;5114400;28;20046;-64
2022/10/12 01:54:50;;;;;;;11.15;5.70;;;6.70;99.90;;;;;;5132680;28;20051;-64
2022/10/12 01:57:31;;;;;;;10.90;5.90;;;6.70;99.90;;;;;;5132475;28;20403;-64
2022/10/12 02:00:07;;;;;;;11.07;5.60;;;6.60;99.90;;;;;;5133020;28;20118;-64
2022/10/12 02:02:57;;;;;;;12.60;6.53;;;6.70;99.90;;;;;;5114303;28;20047;-64
2022/10/12 02:05:42;;;;;;;15.73;5.80;;;6.60;99.90;;;;;;5114334;28;20043;-64
2022/10/12 02:08:22;;;;;;;13.68;6.18;;;6.70;99.90;;;;;;5114164;28;20039;-64
2022/10/12 02:11:07;;;;;;;14.45;6.82;;;6.70;99.90;;;;;;5097219;28;20035;-64
2022/10/12 02:13:47;;;;;;;9.23;5.30;;;6.60;99.90;;;;;;5113826;28;20039;-64
2022/10/12 02:16:17;;;;;;;9.88;5.38;;;6.60;99.90;;;;;;5132780;28;20143;-64
2022/10/12 02:18:48;;;;;;;10.75;5.47;;;6.60;99.90;;;;;;5111783;28;20035;-64
2022/10/12 02:21:20;;;;;;;12.98;6.50;;;6.60;99.90;;;;;;5114140;28;20429;-64
2022/10/12 02:23:49;;;;;;;11.60;5.43;;;6.60;99.90;;;;;;5114159;28;20035;-64
2022/10/12 02:26:16;;;;;;;16.98;6.75;;;6.60;99.90;;;;;;5132334;28;20043;-64
2022/10/12 02:28:43;;;;;;;12.13;5.32;;;6.50;99.90;;;;;;5099716;27;20406;-64
2022/10/12 02:31:29;;;;;;;10.05;4.95;;;6.50;99.90;;;;;;5118047;27;20523;-64
2022/10/12 02:34:08;;;;;;;11.45;5.57;;;6.50;99.90;;;;;;5117668;27;20100;-64
2022/10/12 02:36:52;;;;;;;12.30;6.05;;;6.40;99.90;;;;;;5117826;27;20039;-64
2022/10/12 02:39:45;;;;;;;12.63;5.65;;;6.40;99.90;;;;;;5136415;27;20054;-64
2022/10/12 02:42:17;;;;;;;12.02;6.53;;;6.40;99.90;;;;;;5133479;27;20042;-64
2022/10/12 02:44:44;;;;;;;13.07;6.45;;;6.40;99.90;;;;;;5153429;27;20038;-64
2022/10/12 02:47:11;;;;;;;6.82;4.20;;;6.40;99.90;;;;;;5135618;27;20571;-64
2022/10/12 02:49:38;;;;;;;8.65;5.10;;;6.40;99.90;;;;;;5138607;27;20045;-64
2022/10/12 02:52:06;;;;;;;12.48;5.22;;;6.30;99.90;;;;;;5138199;27;20482;-64
2022/10/12 02:54:32;;;;;;;9.73;5.63;;;6.30;99.90;;;;;;5156817;27;20041;-64
2022/10/12 02:56:58;;;;;;;12.40;5.65;;;6.30;99.90;;;;;;5156854;27;20031;-64
2022/10/12 02:59:23;;;;;;;15.02;6.55;;;6.20;99.90;;;;;;5138091;27;20053;-64
2022/10/12 03:01:49;;;;;;;10.90;5.38;;;6.20;99.90;;;;;;5156637;27;20214;-64
2022/10/12 03:04:15;;;;;;;9.68;5.10;;;6.10;99.90;;;;;;5138342;27;20051;-64
2022/10/12 03:06:41;;;;;;;13.98;5.97;;;6.10;99.90;;;;;;5156725;27;20107;-64
2022/10/12 03:09:08;;;;;;;19.08;7.50;;;6.00;99.90;;;;;;5138134;27;20070;-64
2022/10/12 03:11:35;;;;;;;11.07;6.30;;;6.00;99.90;;;;;;5137962;27;20562;-64
2022/10/12 03:14:01;;;;;;;10.70;6.05;;;6.00;99.90;;;;;;5137834;27;20074;-64
2022/10/12 03:16:27;;;;;;;11.02;5.05;;;6.00;99.90;;;;;;5136076;27;20070;-64
2022/10/12 03:18:52;;;;;;;16.27;7.57;;;6.00;99.90;;;;;;5155823;27;20038;-64
2022/10/12 03:21:18;;;;;;;17.67;7.32;;;6.00;99.90;;;;;;5156465;27;20038;-64
2022/10/12 03:23:44;;;;;;;10.48;6.53;;;6.00;99.90;;;;;;5156502;27;20509;-64
2022/10/12 03:26:10;;;;;;;13.55;6.30;;;6.10;99.90;;;;;;5138075;27;20035;-64
2022/10/12 03:28:36;;;;;;;10.55;5.30;;;6.00;99.90;;;;;;5137421;27;20039;-64
2022/10/12 03:31:02;;;;;;;11.98;5.22;;;6.10;99.90;;;;;;5137438;27;20054;-64
2022/10/12 03:33:28;;;;;;;8.60;4.90;;;6.10;99.90;;;;;;5120240;27;20478;-64
2022/10/12 03:35:54;;;;;;;8.18;5.13;;;6.00;99.90;;;;;;5156211;27;20375;-64
2022/10/12 03:38:20;;;;;;;9.35;5.88;;;6.00;99.90;;;;;;5156116;27;20175;-64
2022/10/12 03:40:46;;;;;;;13.77;6.32;;;6.00;99.90;;;;;;5155082;27;20076;-64
2022/10/12 03:43:14;;;;;;;14.32;5.55;;;6.00;99.90;;;;;;5137638;27;20653;-64
2022/10/12 03:45:39;;;;;;;13.68;7.07;;;5.90;99.90;;;;;;5137257;27;20042;-64
2022/10/12 03:48:06;;;;;;;12.90;7.55;;;5.90;99.90;;;;;;5135092;27;20118;-64
2022/10/12 03:50:33;;;;;;;13.15;6.15;;;5.90;99.90;;;;;;5137490;27;20046;-64
2022/10/12 03:53:01;;;;;;;10.25;5.78;;;5.90;99.90;;;;;;5137139;27;20042;-64
2022/10/12 03:55:27;;;;;;;11.55;6.25;;;5.90;99.90;;;;;;5137138;27;20077;-64
2022/10/12 03:57:52;;;;;;;13.00;5.55;;;5.90;99.90;;;;;;5137033;27;20074;-64
2022/10/12 04:00:18;;;;;;;9.07;4.47;;;5.90;99.90;;;;;;5155470;27;20049;-64
2022/10/12 04:02:44;;;;;;;11.07;5.47;;;5.80;99.90;;;;;;5137213;27;20085;-64
2022/10/12 04:05:10;;;;;;;12.63;6.25;;;5.90;99.90;;;;;;5119772;27;20126;-64
2022/10/12 04:07:36;;;;;;;12.52;6.35;;;5.90;99.90;;;;;;5119668;27;20243;-64
2022/10/12 04:10:02;;;;;;;10.93;6.07;;;5.90;99.90;;;;;;5155289;27;20042;-64
2022/10/12 04:12:28;;;;;;;10.00;4.72;;;5.80;99.90;;;;;;5155273;27;20406;-64
2022/10/12 04:14:54;;;;;;;12.63;7.60;;;5.90;99.90;;;;;;5155197;27;20117;-64
2022/10/12 04:17:20;;;;;;;16.95;8.95;;;5.90;99.90;;;;;;5134372;27;20042;-64
2022/10/12 04:19:45;;;;;;;11.23;7.03;;;5.90;99.90;;;;;;5136505;27;20039;-64
2022/10/12 04:22:11;;;;;;;15.52;8.02;;;5.80;99.90;;;;;;5136497;27;20034;-64
2022/10/12 04:24:37;;;;;;;12.75;6.95;;;5.80;99.90;;;;;;5155065;27;20067;-64
2022/10/12 04:27:03;;;;;;;35.97;8.30;;;5.80;99.90;;;;;;5136743;27;20177;-65
2022/10/12 04:29:29;;;;;;;8.07;4.93;;;5.80;99.90;;;;;;5136095;27;20490;-65
2022/10/12 04:31:55;;;;;;;9.07;5.63;;;5.70;99.90;;;;;;5136469;27;20042;-65
2022/10/12 04:34:20;;;;;;;12.68;6.97;;;5.70;99.90;;;;;;5136276;27;20501;-65
2022/10/12 04:36:46;;;;;;;7.00;5.20;;;5.70;99.90;;;;;;5154847;27;20034;-65
2022/10/12 04:39:12;;;;;;;13.90;6.70;;;5.60;99.90;;;;;;5154795;27;20034;-65
2022/10/12 04:41:38;;;;;;;12.82;7.25;;;5.60;99.90;;;;;;5136397;27;20505;-64
2022/10/12 04:44:05;;;;;;;14.50;6.60;;;5.60;99.90;;;;;;5136054;27;20050;-65
2022/10/12 04:46:31;;;;;;;13.98;5.75;;;5.50;99.90;;;;;;5134400;27;20043;-65
2022/10/12 04:48:57;;;;;;;12.07;6.05;;;5.50;99.90;;;;;;5154645;27;20038;-65
2022/10/12 04:51:23;;;;;;;26.98;6.95;;;5.50;99.90;;;;;;5154508;27;20455;-65
2022/10/12 04:53:50;;;;;;;18.95;7.35;;;5.40;99.90;;;;;;5154495;27;20129;-65
2022/10/12 04:56:16;;;;;;;16.63;7.60;;;5.40;99.90;;;;;;5135890;27;20053;-65
2022/10/12 04:58:45;;;;;;;19.90;6.30;;;5.40;99.90;;;;;;5135844;27;20038;-65
2022/10/12 05:01:11;;;;;;;9.77;4.97;;;5.40;99.90;;;;;;5118654;27;20030;-65
2022/10/12 05:03:37;;;;;;;10.65;6.13;;;5.30;99.90;;;;;;5118596;27;20045;-65
2022/10/12 05:06:03;;;;;;;13.07;6.40;;;5.30;99.90;;;;;;5135727;27;20046;-65
2022/10/12 05:08:28;;;;;;;18.20;8.80;;;5.20;99.90;;;;;;5135894;27;20069;-65
2022/10/12 05:10:57;;;;;;;14.68;6.60;;;5.20;99.90;;;;;;5136048;27;20487;-65
2022/10/12 05:13:22;;;;;;;15.43;8.15;;;5.30;99.90;;;;;;5153863;27;20084;-65
2022/10/12 05:15:48;;;;;;;14.43;8.88;;;5.30;99.90;;;;;;5154246;27;20070;-65
2022/10/12 05:18:14;;;;;;;17.25;8.75;;;5.30;99.90;;;;;;5133147;27;20491;-65
2022/10/12 05:20:40;;;;;;;22.52;10.52;;;5.30;99.90;;;;;;5135581;27;20042;-65
2022/10/12 05:23:06;;;;;;;21.27;11.23;;;5.30;99.90;;;;;;5135639;27;20035;-65
2022/10/12 05:25:34;;;;;;;24.92;12.68;;;5.30;99.90;;;;;;5153985;27;20395;-65
2022/10/12 05:28:00;;;;;;;20.02;10.50;;;5.40;99.90;;;;;;5135326;27;20050;-65
2022/10/12 05:30:26;;;;;;;22.75;11.18;;;5.40;99.90;;;;;;5135360;27;20062;-65
2022/10/12 05:32:51;;;;;;;25.95;11.23;;;5.40;99.90;;;;;;5133179;27;20043;-65
2022/10/12 05:35:17;;;;;;;20.80;11.32;;;5.40;99.90;;;;;;5133131;27;20065;-66
2022/10/12 05:37:43;;;;;;;24.33;13.50;;;5.40;99.90;;;;;;5114603;27;20050;-66
2022/10/12 05:40:10;;;;;;;23.17;12.30;;;5.50;99.90;;;;;;5132981;27;20118;-66
2022/10/12 05:42:35;;;;;;;24.90;13.10;;;5.50;99.90;;;;;;5097578;28;20043;-66
2022/10/12 05:45:02;;;;;;;23.33;13.30;;;5.50;99.90;;;;;;5114798;27;20042;-66
2022/10/12 05:47:28;;;;;;;25.92;13.32;;;5.50;99.90;;;;;;5130442;27;20035;-66
2022/10/12 05:49:53;;;;;;;20.98;12.05;;;5.50;99.90;;;;;;5114499;28;20100;-67
2022/10/12 05:52:19;;;;;;;22.83;11.10;;;5.50;99.90;;;;;;5132792;28;20039;-66
2022/10/12 05:54:45;;;;;;;21.30;11.30;;;5.40;99.90;;;;;;5097774;28;20035;-66
2022/10/12 05:57:13;;;;;;;30.73;13.43;;;5.40;99.90;;;;;;5133221;28;20046;-66
2022/10/12 05:59:39;;;;;;;25.95;11.95;;;5.30;99.90;;;;;;5114725;28;20107;-66
2022/10/12 06:02:06;;;;;;;22.38;11.20;;;5.30;99.90;;;;;;5114567;27;20035;-66
2022/10/12 06:04:32;;;;;;;37.63;13.80;;;5.20;99.90;;;;;;5118936;27;20417;-67
2022/10/12 06:06:57;;;;;;;23.23;12.98;;;5.30;99.90;;;;;;5118551;27;20035;-67
2022/10/12 06:09:23;;;;;;;32.72;14.80;;;5.30;99.90;;;;;;5118541;27;20078;-68
2022/10/12 06:11:49;;;;;;;31.13;14.75;;;5.40;99.90;;;;;;5118402;27;20088;-67
2022/10/12 06:14:15;;;;;;;40.55;16.73;;;5.40;99.90;;;;;;5136756;27;20035;-67
2022/10/12 06:16:41;;;;;;;26.63;12.52;;;5.40;99.90;;;;;;5117856;27;20031;-67
2022/10/12 06:19:10;;;;;;;24.23;12.95;;;5.50;99.90;;;;;;5119525;27;20043;-67
2022/10/12 06:21:36;;;;;;;26.42;12.93;;;5.50;99.90;;;;;;5118324;27;20081;-68
2022/10/12 06:24:02;;;;;;;26.30;12.65;;;5.50;99.90;;;;;;5118351;27;20509;-67
2022/10/12 06:26:28;;;;;;;23.08;12.25;;;5.50;99.90;;;;;;5118410;27;20391;-67
2022/10/12 06:28:54;;;;;;;23.90;12.82;;;5.60;99.90;;;;;;5106244;27;20051;-67
2022/10/12 06:31:21;;;;;;;26.90;13.50;;;5.60;99.90;;;;;;5137657;27;20413;-67
2022/10/12 06:33:49;;;;;;;26.42;13.25;;;5.60;99.90;;;;;;5121981;27;20039;-68
2022/10/12 06:36:14;;;;;;;24.08;14.30;;;5.70;99.90;;;;;;5139380;27;20125;-68
2022/10/12 06:38:40;;;;;;;24.83;12.75;;;5.80;99.90;;;;;;5157535;27;20070;-68
2022/10/12 06:41:06;;;;;;;23.25;13.32;;;5.80;99.90;;;;;;5139215;27;20122;-68
2022/10/12 06:43:32;;;;;;;28.63;13.10;;;5.90;99.90;;;;;;5139110;27;20046;-68
2022/10/12 06:46:01;;;;;;;22.70;11.90;;;6.00;99.90;;;;;;5157831;27;20095;-67
2022/10/12 06:48:27;;;;;;;21.70;11.82;;;6.10;99.90;;;;;;5127162;27;20071;-68
2022/10/12 06:50:53;;;;;;;20.00;11.40;;;6.20;99.90;;;;;;5118671;27;20382;-68
2022/10/12 06:53:19;;;;;;;26.80;11.65;;;6.30;99.90;;;;;;5118469;27;20134;-68
2022/10/12 06:55:44;;;;;;;23.02;10.93;;;6.40;99.90;;;;;;5136028;27;20031;-68
2022/10/12 06:58:10;;;;;;;30.15;11.82;;;6.60;99.90;;;;;;5135718;27;20035;-68
2022/10/12 07:00:36;;;;;;;21.67;12.18;;;6.70;99.90;;;;;;5135584;27;20039;-68
2022/10/12 07:03:03;;;;;;;26.52;11.95;;;6.80;99.90;;;;;;5118627;27;20035;-68
2022/10/12 07:05:29;;;;;;;24.50;9.60;;;6.90;99.90;;;;;;5115138;27;20043;-69
2022/10/12 07:07:55;;;;;;;21.50;9.68;;;7.10;99.90;;;;;;5117994;27;20495;-68
2022/10/12 07:10:21;;;;;;;19.52;9.55;;;7.20;99.90;;;;;;5133544;27;20043;-68
2022/10/12 07:12:47;;;;;;;18.85;10.43;;;7.30;99.90;;;;;;5118156;27;20096;-68
2022/10/12 07:15:13;;;;;;;22.65;9.95;;;7.30;99.90;;;;;;5116751;27;20047;-67
2022/10/12 07:17:39;;;;;;;19.20;8.98;;;7.30;99.90;;;;;;5132900;27;20035;-67
2022/10/12 07:20:06;;;;;;;16.85;8.63;;;7.40;99.90;;;;;;5117497;27;20080;-68
2022/10/12 07:22:32;;;;;;;15.98;7.95;;;7.40;99.90;;;;;;5117871;27;20039;-67
2022/10/12 07:24:58;;;;;;;19.38;7.82;;;7.40;99.90;;;;;;5135994;27;20050;-68
2022/10/12 07:27:23;;;;;;;13.85;7.68;;;7.30;99.90;;;;;;5117886;27;20043;-68
2022/10/12 07:29:49;;;;;;;13.23;8.30;;;7.30;99.90;;;;;;5136248;27;20126;-67
2022/10/12 07:32:15;;;;;;;19.00;7.30;;;7.30;99.90;;;;;;5136225;27;20055;-67
2022/10/12 07:34:43;;;;;;;21.27;7.85;;;7.20;99.90;;;;;;5117881;27;20039;-67
2022/10/12 07:37:09;;;;;;;18.17;7.57;;;7.20;99.90;;;;;;5136308;27;20043;-67
2022/10/12 07:39:35;;;;;;;14.82;7.78;;;7.20;99.90;;;;;;5117831;27;20039;-67
2022/10/12 07:42:01;;;;;;;15.38;6.97;;;7.20;99.90;;;;;;5117816;27;20039;-67
2022/10/12 07:44:29;;;;;;;16.65;7.80;;;7.20;99.90;;;;;;5117705;27;20084;-67
2022/10/12 07:46:55;;;;;;;20.95;8.88;;;7.20;99.90;;;;;;5133838;27;20858;-67
2022/10/12 07:49:21;;;;;;;20.17;8.50;;;7.30;99.90;;;;;;5135894;27;20047;-67
2022/10/12 07:51:47;;;;;;;19.48;8.00;;;7.50;99.90;;;;;;5135836;27;20047;-67
2022/10/12 07:54:13;;;;;;;16.38;8.57;;;7.60;99.90;;;;;;5117461;27;20361;-67
2022/10/12 07:56:39;;;;;;;16.55;8.15;;;7.80;99.90;;;;;;5134786;27;20043;-67
2022/10/12 07:59:05;;;;;;;15.80;7.05;;;7.90;99.90;;;;;;5116993;27;20096;-67
2022/10/12 08:01:32;;;;;;;16.00;7.60;;;7.90;99.90;;;;;;5117256;27;20042;-67
2022/10/12 08:03:58;;;;;;;23.73;6.97;;;8.00;99.90;;;;;;5117144;27;20541;-67
2022/10/12 08:06:27;;;;;;;12.80;7.93;;;8.20;99.90;;;;;;5117387;27;20066;-66
2022/10/12 08:08:53;;;;;;;17.02;7.78;;;8.30;99.90;;;;;;5117104;27;20049;-66
2022/10/12 08:11:20;;;;;;;19.60;7.43;;;8.50;99.90;;;;;;5135521;27;20035;-67
2022/10/12 08:13:46;;;;;;;24.45;8.23;;;8.60;99.90;;;;;;5117065;27;20432;-66
2022/10/12 08:16:19;;;;;;;16.45;6.80;;;8.70;99.90;;;;;;5117224;27;20039;-67
2022/10/12 08:18:45;;;;;;;10.25;6.68;;;8.80;99.90;;;;;;5114685;27;20046;-66
2022/10/12 08:21:12;;;;;;;22.20;6.60;;;9.00;99.90;;;;;;5116931;27;20391;-66
2022/10/12 08:23:38;;;;;;;11.50;5.75;;;9.50;99.90;;;;;;5117024;27;20081;-67
2022/10/12 08:26:06;;;;;;;13.35;6.47;;;10.30;99.90;;;;;;5116191;27;20043;-67
2022/10/12 08:28:32;;;;;;;12.52;6.57;;;11.10;99.90;;;;;;5135141;27;20392;-67
2022/10/12 08:30:58;;;;;;;12.35;5.38;;;11.90;99.90;;;;;;5116801;27;20437;-68
2022/10/12 08:33:27;;;;;;;12.85;5.50;;;12.50;99.90;;;;;;5099433;27;20076;-67
2022/10/12 08:35:52;;;;;;;18.25;6.40;;;13.00;99.90;;;;;;5116588;27;20709;-67
2022/10/12 08:38:18;;;;;;;12.35;6.03;;;13.60;99.90;;;;;;5116441;27;20132;-67
2022/10/12 08:40:56;;;;;;;13.98;6.38;;;14.00;99.90;;;;;;5116425;27;20047;-67
2022/10/12 08:43:46;;;;;;;12.40;5.95;;;14.30;99.90;;;;;;5129996;27;20105;-67
2022/10/12 08:46:12;;;;;;;10.45;6.03;;;14.60;99.90;;;;;;5137271;27;20132;-66
2022/10/12 08:49:17;;;;;;;13.95;6.70;;;14.90;99.90;;;;;;5134677;27;20482;-67
2022/10/12 08:51:58;;;;;;;16.95;6.28;;;15.20;99.90;;;;;;5139651;27;20154;-66
2022/10/12 08:54:37;;;;;;;13.75;6.53;;;15.60;99.90;;;;;;5147692;27;20039;-67
2022/10/12 08:57:03;;;;;;;14.20;7.07;;;16.10;99.90;;;;;;5115811;27;20039;-66
2022/10/12 08:59:32;;;;;;;10.38;6.70;;;16.30;99.90;;;;;;5116039;27;20042;-66
2022/10/12 09:02:30;;;;;;;13.98;6.05;;;16.50;99.90;;;;;;5134468;27;20043;-66
2022/10/12 09:05:00;;;;;;;9.90;6.88;;;16.80;99.90;;;;;;5134133;27;20046;-66
2022/10/12 09:07:32;;;;;;;13.35;6.75;;;17.20;99.90;;;;;;5111811;28;20055;-66
2022/10/12 09:10:34;;;;;;;14.07;5.93;;;17.60;99.90;;;;;;5112537;28;20047;-66
2022/10/12 09:13:10;;;;;;;12.73;5.75;;;17.80;99.90;;;;;;5133888;27;20079;-66
2022/10/12 09:15:52;;;;;;;12.70;6.25;;;17.90;99.90;;;;;;5136586;27;20035;-66
2022/10/12 09:18:24;;;;;;;15.55;6.45;;;18.00;99.90;;;;;;5152650;27;20034;-66
2022/10/12 09:20:52;;;;;;;12.93;5.60;;;18.10;99.90;;;;;;5136233;27;20035;-67
2022/10/12 09:23:26;;;;;;;15.23;5.35;;;18.60;99.90;;;;;;5135334;27;20042;-67
2022/10/12 09:26:32;;;;;;;11.82;5.85;;;19.00;99.90;;;;;;5113922;27;20043;-67
2022/10/12 09:28:58;;;;;;;12.15;5.55;;;19.30;99.90;;;;;;5137586;27;20054;-66
2022/10/12 09:31:31;;;;;;;13.57;5.70;;;19.70;99.90;;;;;;5154397;27;20046;-67
2022/10/12 09:34:03;;;;;;;11.85;4.75;;;20.00;99.90;;;;;;5135846;27;20047;-67
2022/10/12 09:36:40;;;;;;;9.27;5.10;;;20.10;99.90;;;;;;5136043;27;20035;-67
2022/10/12 09:39:15;;;;;;;7.63;4.90;;;20.10;99.90;;;;;;5154235;27;20039;-67
2022/10/12 09:41:44;;;;;;;10.48;4.53;;;20.30;99.90;;;;;;5136034;27;20050;-67
2022/10/12 09:44:18;;;;;;;9.05;4.68;;;20.40;99.90;;;;;;5135877;27;20039;-67
2022/10/12 09:46:54;;;;;;;14.48;5.47;;;20.50;99.10;;;;;;5133317;27;20047;-67
2022/10/12 09:49:20;;;;;;;11.00;4.78;;;20.50;97.90;;;;;;5134882;27;20043;-67
2022/10/12 09:51:58;;;;;;;9.20;4.55;;;20.60;98.60;;;;;;5135140;27;20043;-67
2022/10/12 09:54:26;;;;;;;12.75;5.20;;;20.70;97.80;;;;;;5153212;27;20046;-67
2022/10/12 09:56:54;;;;;;;12.20;4.07;;;20.90;96.90;;;;;;5110235;28;20042;-67
2022/10/12 09:59:46;;;;;;;9.90;3.78;;;21.00;96.60;;;;;;5112907;28;20552;-67
2022/10/12 10:02:21;;;;;;;9.90;4.03;;;21.10;95.00;;;;;;5109744;28;20079;-68
2022/10/12 10:04:49;;;;;;;11.25;3.80;;;21.00;95.60;;;;;;5097541;28;20445;-67
2022/10/12 10:07:20;;;;;;;9.50;4.35;;;21.00;95.10;;;;;;5113969;28;20122;-67
2022/10/12 10:09:47;;;;;;;11.15;4.15;;;21.10;94.50;;;;;;5114449;28;20098;-67
2022/10/12 10:12:23;;;;;;;9.85;3.95;;;21.30;94.80;;;;;;5114823;28;20098;-67
2022/10/12 10:14:55;;;;;;;9.77;3.78;;;21.50;93.90;;;;;;5097692;28;20039;-67
2022/10/12 10:17:25;;;;;;;9.68;4.18;;;21.60;94.10;;;;;;5129993;28;20070;-66
2022/10/12 10:19:55;;;;;;;7.72;3.63;;;21.70;93.40;;;;;;5114028;28;20093;-67
2022/10/12 10:22:21;;;;;;;;;;;21.80;92.10;;;;;;5114716;28;20050;-67
2022/10/12 10:24:54;;;;;;;7.47;3.72;;;21.60;88.40;;;;;;5126240;28;19915;-67
2022/10/12 10:27:33;;;;;;;9.05;3.20;;;21.50;91.10;;;;;;5132587;28;20369;-67
2022/10/12 10:30:15;;;;;;;9.02;3.45;;;21.40;89.10;;;;;;5132147;28;20058;-67
2022/10/12 10:32:43;;;;;;;10.48;4.30;;;21.20;89.40;;;;;;5097097;28;20035;-67
2022/10/12 10:35:28;;;;;;;10.27;3.95;;;21.30;90.80;;;;;;5132049;28;20142;-67
2022/10/12 10:38:15;;;;;;;8.45;3.70;;;21.50;90.60;;;;;;5132295;28;20554;-66
2022/10/12 10:41:04;;;;;;;12.63;4.15;;;21.70;90.00;;;;;;5132449;28;20034;-67
2022/10/12 10:43:49;;;;;;;9.43;3.20;;;21.50;88.60;;;;;;5132216;28;20457;-67
2022/10/12 10:46:36;;;;;;;8.43;4.30;;;21.20;90.00;;;;;;5131339;28;20272;-66
2022/10/12 10:49:06;;;;;;;9.07;3.88;;;20.90;90.00;;;;;;5133034;27;20384;-66
2022/10/12 10:51:40;;;;;;;;;;;20.90;89.90;;;;;;5117715;27;20043;-66
2022/10/12 10:54:22;;;;;;;11.55;4.68;;;21.00;90.80;;;;;;5117409;27;20379;-66
2022/10/12 10:57:00;;;;;;;9.00;4.07;;;21.20;90.50;;;;;;5117419;27;20565;-67
2022/10/12 10:59:40;;;;;;;15.45;4.93;;;21.10;90.20;;;;;;5117547;27;20174;-66
2022/10/12 11:02:09;;;;;;;;;;;20.50;90.30;;;;;;5117754;27;20122;-66
2022/10/12 11:04:41;;;;;;;8.85;4.80;;;19.90;91.90;;;;;;5117293;27;20002;-66
2022/10/12 11:07:31;;;;;;;10.38;4.25;;;19.30;92.00;;;;;;5117356;27;20147;-66
2022/10/12 11:10:01;;;;;;;15.35;5.45;;;18.80;92.50;;;;;;5117289;27;20047;-66
2022/10/12 11:12:33;;;;;;;10.18;4.03;;;18.50;93.30;;;;;;5117446;27;20050;-66
2022/10/12 11:15:19;;;;;;;12.75;4.57;;;18.60;93.40;;;;;;5135843;27;20483;-66
2022/10/12 11:18:01;;;;;;;11.50;4.88;;;19.10;94.00;;;;;;5114909;27;20039;-66
2022/10/12 11:21:01;;;;;;;12.10;4.25;;;19.10;93.20;;;;;;5109080;27;20047;-66
2022/10/12 11:23:40;;;;;;;10.15;4.38;;;18.70;92.60;;;;;;5099844;27;20039;-65
2022/10/12 11:26:12;;;;;;;6.95;2.80;;;18.30;93.40;;;;;;5135427;27;20043;-66
2022/10/12 11:28:39;;;;;;;8.52;2.92;;;18.10;93.10;;;;;;5116617;27;20830;-65
2022/10/12 11:31:15;;;;;;;9.98;3.15;;;17.80;92.40;;;;;;5135138;27;20051;-65
2022/10/12 11:33:43;;;;;;;8.10;2.70;;;17.50;92.50;;;;;;5116685;27;20046;-66
2022/10/12 11:36:12;;;;;;;11.45;3.10;;;17.30;92.60;;;;;;5117189;27;20039;-66
2022/10/12 11:38:55;;;;;;;8.02;3.03;;;17.40;92.80;;;;;;5117280;27;20047;-65
2022/10/12 11:41:38;;;;;;;7.53;2.40;;;17.30;93.20;;;;;;5135884;27;20371;-66
2022/10/12 11:44:13;;;;;;;12.00;3.05;;;17.20;92.60;;;;;;5117725;27;20077;-66
2022/10/12 11:46:57;;;;;;;10.20;3.30;;;17.00;93.40;;;;;;5098921;27;20243;-64
2022/10/12 11:49:29;;;;;;;9.70;3.25;;;16.80;93.40;;;;;;5116601;27;20062;-66
2022/10/12 11:51:58;;;;;;;8.07;2.88;;;16.60;93.80;;;;;;5116647;27;20043;-66
2022/10/12 11:54:30;;;;;;;10.37;3.87;;;16.40;94.10;;;;;;5116417;27;20035;-66
2022/10/12 11:57:01;;;;;;;8.27;3.17;;;16.30;94.60;;;;;;5128900;27;20042;-66
2022/10/12 11:59:55;;;;;;;12.50;3.35;;;16.40;95.60;;;;;;5107768;27;20092;-67
2022/10/12 12:02:24;;;;;;;15.70;3.67;;;16.70;95.10;;;;;;5131346;27;20054;-66
2022/10/12 12:04:51;;;;;;;7.22;2.80;;;16.70;95.30;;;;;;5092825;28;20043;-67
2022/10/12 12:07:49;;;;;;;9.10;2.83;;;16.80;95.20;;;;;;5114684;27;20035;-66
2022/10/12 12:10:24;;;;;;;12.05;3.72;;;16.80;94.90;;;;;;5099519;27;20067;-66
2022/10/12 12:13:10;;;;;;;10.45;3.20;;;16.70;94.00;;;;;;5116524;27;20101;-66
2022/10/12 12:15:37;;;;;;;10.18;2.72;;;16.50;94.00;;;;;;5116311;27;20105;-67
2022/10/12 12:18:21;;;;;;;7.35;2.53;;;16.40;94.20;;;;;;5114340;27;20043;-66
2022/10/12 12:20:47;;;;;;;10.27;3.25;;;16.30;94.00;;;;;;5116612;27;20038;-66
2022/10/12 12:23:26;;;;;;;7.43;2.72;;;16.20;93.70;;;;;;5106679;28;20035;-66
2022/10/12 12:26:12;;;;;;;8.98;2.90;;;16.00;93.60;;;;;;5114013;28;20044;-65
2022/10/12 12:28:47;;;;;;;9.32;2.63;;;15.90;93.70;;;;;;5096120;28;20493;-65
2022/10/12 12:31:35;;;;;;;8.68;2.83;;;15.80;93.70;;;;;;5095965;28;20086;-65
2022/10/12 12:34:06;;;;;;;9.68;3.15;;;15.90;93.50;;;;;;5095326;28;20044;-68
2022/10/12 12:36:44;;;;;;;12.52;3.20;;;15.90;94.10;;;;;;5113764;28;20046;-66
2022/10/12 12:39:31;;;;;;;8.50;2.35;;;15.90;93.90;;;;;;5094926;28;20119;-65
2022/10/12 12:42:06;;;;;;;7.65;2.88;;;16.00;94.40;;;;;;5095099;28;20036;-65
2022/10/12 12:44:43;;;;;;;8.10;2.47;;;16.00;94.20;;;;;;5093458;28;20066;-65
2022/10/12 12:47:09;;;;;;;7.20;2.85;;;15.90;94.20;;;;;;5090952;28;20227;-66
2022/10/12 12:49:45;;;;;;;11.25;3.28;;;15.90;94.30;;;;;;5111439;28;20070;-65
2022/10/12 12:52:28;;;;;;;10.00;3.42;;;15.90;94.00;;;;;;5093003;28;20495;-65
2022/10/12 12:54:54;;;;;;;11.23;4.65;;;15.80;94.60;;;;;;5092858;28;20127;-66
2022/10/12 12:57:32;;;;;;;9.35;2.63;;;15.70;95.00;;;;;;5093089;28;20177;-65
2022/10/12 13:00:16;;;;;;;10.15;2.40;;;15.70;94.90;;;;;;5076193;28;20074;-66
2022/10/12 13:03:07;;;;;;;9.38;3.25;;;15.70;94.90;;;;;;5093034;28;20049;-65
2022/10/12 13:05:56;;;;;;;10.35;2.97;;;15.60;94.90;;;;;;5110997;28;20257;-66